Time;durP1;ratioP1;P1;durP2;ratioP2;P2;SDS_P1;SDS_P2;PMS_P1;PMS_P2;Temp;Humidity;BMP_temperature;BMP_pressure;BME280_temperature;BME280_humidity;BME280_pressure;Samples;Min_cycle;Max_cycle;Signal;HPM_P1;HPM_P2
2023/03/16 00:02:02;;;;;;;5.93;2.25;;;;;;;;;;5084352;28;20381;-79
2023/03/16 00:04:29;;;;;;;4.03;1.92;;;;;;;;;;5085867;28;20157;-77
2023/03/16 00:06:55;;;;;;;4.32;2.00;;;;;;;;;;5081288;28;20036;-78
2023/03/16 00:09:29;;;;;;;4.95;2.30;;;;;;;;;;5082747;28;20047;-77
2023/03/16 00:11:57;;;;;;;5.90;2.08;;;;;;;;;;5082135;28;20404;-78
2023/03/16 00:14:25;;;;;;;3.88;2.10;;;;;;;;;;5068636;28;20105;-77
2023/03/16 00:16:51;;;;;;;4.95;2.15;;;;;;;;;;5082176;28;20035;-79
2023/03/16 00:19:17;;;;;;;9.70;2.15;;;;;;;;;;5082333;28;20428;-77
2023/03/16 00:21:43;;;;;;;5.95;1.98;;;;;;;;;;5087959;28;20427;-77
2023/03/16 00:24:11;;;;;;;5.25;2.60;;;;;;;;;;5085751;28;20024;-77
2023/03/16 00:26:37;;;;;;;3.47;1.63;;;;;;;;;;5082270;28;20020;-76
2023/03/16 00:29:03;;;;;;;10.05;2.97;;;;;;;;;;5080186;28;20079;-78
2023/03/16 00:31:32;;;;;;;6.13;2.17;;;;;;;;;;5081089;28;20498;-77
2023/03/16 00:33:58;;;;;;;6.75;1.98;;;;;;;;;;5085401;28;20032;-78
2023/03/16 00:36:24;;;;;;;6.85;1.98;;;;;;;;;;5082081;28;20365;-78
2023/03/16 00:38:51;;;;;;;11.27;2.00;;;;;;;;;;5079196;28;20433;-77
2023/03/16 00:41:17;;;;;;;5.45;1.75;;;;;;;;;;5082759;28;20028;-77
2023/03/16 00:43:44;;;;;;;7.68;2.30;;;;;;;;;;5083476;28;20148;-78
2023/03/16 00:46:25;;;;;;;12.77;1.80;;;;;;;;;;5084110;28;20032;-79
2023/03/16 00:48:51;;;;;;;3.10;1.95;;;;;;;;;;5083272;28;20073;-77
2023/03/16 00:51:17;;;;;;;4.95;1.65;;;;;;;;;;5085579;28;20035;-78
2023/03/16 00:53:44;;;;;;;4.60;1.88;;;;;;;;;;5083303;28;20020;-78
2023/03/16 00:56:10;;;;;;;6.78;2.00;;;;;;;;;;5084045;28;20032;-79
2023/03/16 00:58:37;;;;;;;4.72;2.08;;;;;;;;;;5062809;28;20082;-77
2023/03/16 01:01:05;;;;;;;6.95;2.08;;;;;;;;;;5085615;28;20081;-79
2023/03/16 01:03:31;;;;;;;7.03;1.92;;;;;;;;;;5078407;28;20119;-79
2023/03/16 01:05:58;;;;;;;5.55;2.38;;;;;;;;;;5082490;28;20028;-79
2023/03/16 01:08:26;;;;;;;3.17;1.83;;;;;;;;;;5084432;28;20098;-78
2023/03/16 01:10:53;;;;;;;6.95;2.35;;;;;;;;;;5082734;28;20047;-78
2023/03/16 01:13:19;;;;;;;4.30;2.08;;;;;;;;;;5062721;28;20031;-77
2023/03/16 01:15:46;;;;;;;5.55;1.83;;;;;;;;;;5085747;28;20028;-77
2023/03/16 01:18:12;;;;;;;7.22;1.85;;;;;;;;;;5083230;28;21848;-78
2023/03/16 01:20:39;;;;;;;4.15;2.10;;;;;;;;;;5079961;28;20026;-78
2023/03/16 01:23:05;;;;;;;4.55;1.83;;;;;;;;;;5062727;28;20067;-79
2023/03/16 01:25:31;;;;;;;8.20;1.92;;;;;;;;;;5084754;28;20027;-76
2023/03/16 01:27:57;;;;;;;3.15;2.20;;;;;;;;;;5083072;28;20055;-76
2023/03/16 01:30:23;;;;;;;7.32;1.90;;;;;;;;;;5071021;28;20380;-75
2023/03/16 01:32:49;;;;;;;4.88;2.10;;;;;;;;;;5090372;28;20522;-76
2023/03/16 01:35:16;;;;;;;12.32;2.45;;;;;;;;;;5082621;28;20039;-75
2023/03/16 01:37:42;;;;;;;5.10;1.90;;;;;;;;;;5079754;28;20056;-75
2023/03/16 01:40:10;;;;;;;6.88;2.10;;;;;;;;;;5088223;28;20396;-76
2023/03/16 01:42:49;;;;;;;4.40;1.85;;;;;;;;;;5089355;28;20111;-76
2023/03/16 01:45:35;;;;;;;3.28;1.73;;;;;;;;;;5086409;28;20497;-76
2023/03/16 01:48:01;;;;;;;6.45;2.42;;;;;;;;;;5089565;28;20028;-75
2023/03/16 01:50:27;;;;;;;5.95;1.98;;;;;;;;;;5089798;28;20091;-76
2023/03/16 01:52:53;;;;;;;5.65;2.25;;;;;;;;;;5090913;28;20100;-75
2023/03/16 01:55:19;;;;;;;2.47;2.00;;;;;;;;;;5082364;28;20434;-76
2023/03/16 01:57:46;;;;;;;4.15;2.05;;;;;;;;;;5073098;28;20071;-76
2023/03/16 02:00:18;;;;;;;4.88;2.53;;;;;;;;;;5091517;28;20045;-76
2023/03/16 02:02:45;;;;;;;4.20;2.22;;;;;;;;;;5090091;28;20035;-77
2023/03/16 02:05:11;;;;;;;6.38;2.00;;;;;;;;;;5088812;28;20434;-76
2023/03/16 02:07:41;;;;;;;4.53;2.13;;;;;;;;;;5089118;28;20021;-76
2023/03/16 02:10:08;;;;;;;3.88;2.05;;;;;;;;;;5088650;28;20472;-77
2023/03/16 02:12:35;;;;;;;3.65;2.10;;;;;;;;;;5088678;28;20038;-76
2023/03/16 02:15:01;;;;;;;8.65;2.20;;;;;;;;;;5092010;28;20107;-76
2023/03/16 02:17:28;;;;;;;3.25;2.08;;;;;;;;;;5088807;28;20098;-76
2023/03/16 02:20:07;;;;;;;5.45;1.92;;;;;;;;;;5089862;28;20032;-76
2023/03/16 02:22:35;;;;;;;6.30;2.38;;;;;;;;;;5082956;28;20062;-75
2023/03/16 02:25:01;;;;;;;5.53;2.17;;;;;;;;;;5090676;28;20058;-74
2023/03/16 02:27:30;;;;;;;7.10;1.92;;;;;;;;;;5083995;28;20036;-74
2023/03/16 02:30:02;;;;;;;3.95;2.22;;;;;;;;;;5089004;28;20418;-75
2023/03/16 02:32:30;;;;;;;6.43;2.40;;;;;;;;;;5091973;28;20020;-74
2023/03/16 02:34:56;;;;;;;5.13;2.42;;;;;;;;;;5092526;28;20043;-75
2023/03/16 02:37:22;;;;;;;6.70;2.60;;;;;;;;;;5090748;28;20048;-75
2023/03/16 02:39:49;;;;;;;5.38;2.35;;;;;;;;;;5093761;28;20051;-75
2023/03/16 02:42:20;;;;;;;7.20;2.53;;;;;;;;;;5086868;28;20040;-75
2023/03/16 02:44:48;;;;;;;5.75;2.47;;;;;;;;;;5091584;28;20032;-75
2023/03/16 02:47:24;;;;;;;6.68;2.30;;;;;;;;;;5089583;28;20533;-75
2023/03/16 02:49:50;;;;;;;8.45;3.33;;;;;;;;;;5092833;28;20036;-75
2023/03/16 02:52:16;;;;;;;3.80;2.20;;;;;;;;;;5079186;28;20492;-75
2023/03/16 02:54:42;;;;;;;6.25;2.10;;;;;;;;;;5086070;28;20380;-75
2023/03/16 02:57:08;;;;;;;5.70;2.47;;;;;;;;;;5089127;28;20038;-76
2023/03/16 02:59:34;;;;;;;5.82;2.28;;;;;;;;;;5089802;28;20032;-75
2023/03/16 03:02:00;;;;;;;3.85;2.20;;;;;;;;;;5089189;28;20035;-75
2023/03/16 03:04:26;;;;;;;4.07;2.38;;;;;;;;;;5076968;28;20157;-75
2023/03/16 03:06:52;;;;;;;5.95;2.53;;;;;;;;;;5081871;28;20028;-77
2023/03/16 03:09:19;;;;;;;3.80;2.25;;;;;;;;;;5090591;28;20039;-76
2023/03/16 03:11:45;;;;;;;7.00;2.50;;;;;;;;;;5091914;28;20032;-76
2023/03/16 03:14:15;;;;;;;9.02;2.83;;;;;;;;;;5082843;28;20031;-77
2023/03/16 03:16:45;;;;;;;6.88;2.58;;;;;;;;;;5086201;28;20024;-76
2023/03/16 03:19:12;;;;;;;9.00;2.70;;;;;;;;;;5084209;28;20044;-77
2023/03/16 03:21:40;;;;;;;7.43;2.53;;;;;;;;;;5072142;28;20071;-76
2023/03/16 03:24:06;;;;;;;6.78;2.75;;;;;;;;;;5079127;28;20016;-76
2023/03/16 03:26:32;;;;;;;8.15;2.58;;;;;;;;;;5081835;28;20029;-75
2023/03/16 03:28:59;;;;;;;6.72;3.08;;;;;;;;;;5087182;28;20040;-76
2023/03/16 03:31:25;;;;;;;7.40;2.85;;;;;;;;;;5090251;28;20036;-74
2023/03/16 03:33:52;;;;;;;7.35;3.40;;;;;;;;;;5085656;28;20035;-75
2023/03/16 03:36:18;;;;;;;6.88;3.30;;;;;;;;;;5083555;28;20369;-75
2023/03/16 03:38:44;;;;;;;9.45;3.22;;;;;;;;;;5091564;28;20140;-75
2023/03/16 03:41:11;;;;;;;6.68;2.80;;;;;;;;;;5090454;28;20341;-76
2023/03/16 03:43:37;;;;;;;4.43;2.85;;;;;;;;;;5070018;28;20061;-75
2023/03/16 03:46:04;;;;;;;6.43;3.72;;;;;;;;;;5092412;28;20179;-76
2023/03/16 03:48:30;;;;;;;8.88;3.25;;;;;;;;;;5084568;28;20051;-77
2023/03/16 03:50:56;;;;;;;7.40;3.22;;;;;;;;;;5075606;28;20476;-75
2023/03/16 03:53:22;;;;;;;7.85;3.55;;;;;;;;;;5080687;28;20043;-75
2023/03/16 03:55:48;;;;;;;6.50;3.00;;;;;;;;;;5092641;28;20032;-75
2023/03/16 03:58:14;;;;;;;4.72;2.97;;;;;;;;;;5087385;28;20124;-75
2023/03/16 04:00:40;;;;;;;9.20;3.17;;;;;;;;;;5085155;28;20027;-75
2023/03/16 04:03:07;;;;;;;6.07;3.38;;;;;;;;;;5065821;28;20040;-76
2023/03/16 04:05:34;;;;;;;5.07;3.15;;;;;;;;;;5085315;28;20060;-75
2023/03/16 04:08:00;;;;;;;10.52;4.53;;;;;;;;;;5087618;28;20040;-78
2023/03/16 04:10:26;;;;;;;5.18;3.08;;;;;;;;;;5081260;28;20068;-76
2023/03/16 04:12:52;;;;;;;10.27;3.45;;;;;;;;;;5077570;28;20043;-76
2023/03/16 04:15:21;;;;;;;6.60;3.50;;;;;;;;;;5088816;28;20036;-76
2023/03/16 04:17:47;;;;;;;9.13;3.45;;;;;;;;;;5070955;28;20758;-77
2023/03/16 04:20:14;;;;;;;6.35;3.22;;;;;;;;;;5085921;28;20040;-77
2023/03/16 04:22:43;;;;;;;7.07;3.50;;;;;;;;;;5072259;28;20036;-77
2023/03/16 04:25:10;;;;;;;7.32;3.95;;;;;;;;;;5089777;28;20028;-77
2023/03/16 04:27:36;;;;;;;6.32;3.95;;;;;;;;;;5075686;28;20105;-76
2023/03/16 04:30:04;;;;;;;7.60;3.42;;;;;;;;;;5088640;28;20056;-77
2023/03/16 04:32:30;;;;;;;5.47;3.63;;;;;;;;;;5081853;28;20514;-75
2023/03/16 04:34:56;;;;;;;6.57;3.63;;;;;;;;;;5079489;28;20028;-76
2023/03/16 04:37:22;;;;;;;7.72;3.55;;;;;;;;;;5088227;28;20047;-75
2023/03/16 04:39:48;;;;;;;10.50;4.35;;;;;;;;;;5087887;28;20460;-75
2023/03/16 04:42:14;;;;;;;6.18;3.90;;;;;;;;;;5089531;28;20383;-75
2023/03/16 04:44:43;;;;;;;9.05;4.05;;;;;;;;;;5085327;28;20025;-75
2023/03/16 04:47:09;;;;;;;10.43;4.35;;;;;;;;;;5090525;28;20039;-76
2023/03/16 04:49:36;;;;;;;6.50;4.40;;;;;;;;;;5084924;28;20517;-75
2023/03/16 04:52:02;;;;;;;9.70;3.92;;;;;;;;;;5089505;28;20024;-75
2023/03/16 04:54:28;;;;;;;10.15;4.22;;;;;;;;;;5084426;28;20031;-75
2023/03/16 04:56:54;;;;;;;9.13;4.50;;;;;;;;;;5071478;28;20465;-76
2023/03/16 04:59:21;;;;;;;10.50;4.88;;;;;;;;;;5086500;28;20386;-75
2023/03/16 05:01:48;;;;;;;8.32;3.97;;;;;;;;;;5089348;28;20028;-75
2023/03/16 05:04:14;;;;;;;6.50;4.45;;;;;;;;;;5085357;28;20035;-75
2023/03/16 05:06:40;;;;;;;6.43;4.38;;;;;;;;;;5082841;28;20036;-76
2023/03/16 05:09:07;;;;;;;8.52;4.75;;;;;;;;;;5070593;28;20070;-77
2023/03/16 05:11:33;;;;;;;8.80;4.95;;;;;;;;;;5088668;28;20028;-76
2023/03/16 05:14:00;;;;;;;8.38;4.45;;;;;;;;;;5072731;28;20039;-75
2023/03/16 05:16:27;;;;;;;9.77;4.90;;;;;;;;;;5077743;28;20117;-75
2023/03/16 05:18:53;;;;;;;11.27;4.68;;;;;;;;;;5082904;28;20063;-75
2023/03/16 05:21:19;;;;;;;8.75;4.75;;;;;;;;;;5087057;28;20056;-75
2023/03/16 05:23:45;;;;;;;10.18;4.65;;;;;;;;;;5088840;28;20047;-75
2023/03/16 05:26:12;;;;;;;6.75;3.90;;;;;;;;;;5080434;28;20081;-77
2023/03/16 05:28:38;;;;;;;6.55;4.22;;;;;;;;;;5078202;28;20036;-75
2023/03/16 05:31:05;;;;;;;6.25;4.30;;;;;;;;;;5089555;28;20051;-76
2023/03/16 05:33:31;;;;;;;12.07;4.80;;;;;;;;;;5066708;28;20047;-75
2023/03/16 05:35:57;;;;;;;10.25;5.40;;;;;;;;;;5067095;28;20036;-75
2023/03/16 05:38:24;;;;;;;9.60;5.05;;;;;;;;;;5082783;28;20072;-74
2023/03/16 05:40:51;;;;;;;8.07;5.28;;;;;;;;;;5044583;28;20088;-74
2023/03/16 05:43:19;;;;;;;11.52;5.47;;;;;;;;;;5089754;28;20044;-74
2023/03/16 05:45:45;;;;;;;11.75;5.18;;;;;;;;;;5087551;28;20124;-74
2023/03/16 05:48:11;;;;;;;9.73;6.00;;;;;;;;;;5089509;28;20043;-75
2023/03/16 05:50:37;;;;;;;7.60;4.72;;;;;;;;;;5087399;28;20020;-74
2023/03/16 05:53:03;;;;;;;6.60;4.88;;;;;;;;;;5076666;28;20032;-75
2023/03/16 05:55:29;;;;;;;8.55;5.30;;;;;;;;;;5078035;28;20415;-75
2023/03/16 05:57:56;;;;;;;11.43;5.35;;;;;;;;;;5082019;28;20111;-76
2023/03/16 06:00:22;;;;;;;9.18;5.28;;;;;;;;;;5078010;28;20039;-75
2023/03/16 06:02:50;;;;;;;11.32;5.95;;;;;;;;;;5074624;28;20828;-75
2023/03/16 06:05:17;;;;;;;7.20;5.35;;;;;;;;;;5078072;28;20303;-74
2023/03/16 06:07:43;;;;;;;8.82;5.03;;;;;;;;;;5083150;28;20078;-75
2023/03/16 06:10:10;;;;;;;8.50;5.05;;;;;;;;;;5080858;28;20040;-78
2023/03/16 06:12:37;;;;;;;20.67;10.00;;;;;;;;;;5064368;28;20059;-79
2023/03/16 06:15:06;;;;;;;18.70;9.98;;;;;;;;;;5090299;28;20462;-77
2023/03/16 06:17:32;;;;;;;11.95;5.40;;;;;;;;;;5075041;28;20043;-76
2023/03/16 06:19:58;;;;;;;9.60;4.82;;;;;;;;;;5074288;28;20482;-75
2023/03/16 06:22:25;;;;;;;10.25;5.25;;;;;;;;;;5065439;28;20036;-75
2023/03/16 06:24:51;;;;;;;10.73;4.88;;;;;;;;;;5070264;28;20056;-75
2023/03/16 06:27:19;;;;;;;10.90;4.88;;;;;;;;;;5081540;28;20040;-74
2023/03/16 06:29:45;;;;;;;9.32;5.20;;;;;;;;;;5078766;28;20031;-76
2023/03/16 06:32:11;;;;;;;7.85;5.47;;;;;;;;;;5084920;28;20039;-76
2023/03/16 06:34:37;;;;;;;12.57;5.03;;;;;;;;;;5081638;28;20040;-76
2023/03/16 06:37:03;;;;;;;10.30;4.93;;;;;;;;;;5079801;28;20097;-75
2023/03/16 06:39:30;;;;;;;6.07;4.50;;;;;;;;;;5075298;28;20440;-73
2023/03/16 06:41:56;;;;;;;9.35;4.82;;;;;;;;;;5078939;28;20086;-76
2023/03/16 06:44:23;;;;;;;8.02;4.75;;;;;;;;;;5067200;28;20036;-75
2023/03/16 06:46:49;;;;;;;7.10;4.32;;;;;;;;;;5092531;28;20032;-74
2023/03/16 06:49:15;;;;;;;9.80;4.50;;;;;;;;;;5086600;28;20050;-74
2023/03/16 06:51:41;;;;;;;8.15;4.53;;;;;;;;;;5066605;28;20071;-74
2023/03/16 06:54:08;;;;;;;8.93;4.32;;;;;;;;;;5089862;28;20651;-74
2023/03/16 06:56:34;;;;;;;7.55;4.28;;;;;;;;;;5086568;28;20389;-73
2023/03/16 06:59:00;;;;;;;7.78;4.88;;;;;;;;;;5075661;28;20040;-73
2023/03/16 07:01:26;;;;;;;8.70;4.40;;;;;;;;;;5086008;28;20039;-73
2023/03/16 07:03:53;;;;;;;9.60;4.70;;;;;;;;;;5084353;28;20621;-75
2023/03/16 07:06:19;;;;;;;44.45;23.08;;;;;;;;;;5086394;28;20035;-75
2023/03/16 07:08:46;;;;;;;9.25;4.68;;;;;;;;;;5082638;28;20040;-74
2023/03/16 07:11:13;;;;;;;8.90;4.45;;;;;;;;;;5079092;28;20032;-75
2023/03/16 07:13:40;;;;;;;8.88;4.63;;;;;;;;;;5089889;28;20492;-75
2023/03/16 07:16:06;;;;;;;9.35;4.97;;;;;;;;;;5065706;28;20123;-75
2023/03/16 07:18:32;;;;;;;8.52;4.47;;;;;;;;;;5074442;28;20542;-73
2023/03/16 07:20:58;;;;;;;9.80;6.10;;;;;;;;;;5077133;28;20138;-74
2023/03/16 07:23:25;;;;;;;6.00;4.45;;;;;;;;;;5089662;28;20028;-73
2023/03/16 07:25:51;;;;;;;13.18;5.00;;;;;;;;;;5092702;28;20028;-74
2023/03/16 07:28:18;;;;;;;6.05;4.45;;;;;;;;;;5078828;28;20101;-75
2023/03/16 07:30:47;;;;;;;9.05;4.78;;;;;;;;;;5080172;28;20024;-73
2023/03/16 07:33:13;;;;;;;8.07;4.75;;;;;;;;;;5077108;28;20366;-73
2023/03/16 07:35:40;;;;;;;8.95;4.43;;;;;;;;;;5078312;28;20715;-74
2023/03/16 07:38:08;;;;;;;10.18;5.60;;;;;;;;;;5079091;28;20067;-76
2023/03/16 07:40:34;;;;;;;10.63;5.25;;;;;;;;;;5079323;28;20020;-74
2023/03/16 07:43:00;;;;;;;8.93;4.97;;;;;;;;;;5083660;28;20025;-76
2023/03/16 07:45:27;;;;;;;8.00;4.30;;;;;;;;;;5072060;28;20036;-73
2023/03/16 07:47:53;;;;;;;8.63;3.78;;;;;;;;;;5081555;28;20035;-73
2023/03/16 07:50:19;;;;;;;8.27;4.80;;;;;;;;;;5075861;28;20039;-75
2023/03/16 07:52:45;;;;;;;5.57;4.28;;;;;;;;;;5073739;28;20041;-75
2023/03/16 07:55:11;;;;;;;9.52;4.72;;;;;;;;;;5084661;28;20028;-75
2023/03/16 07:57:41;;;;;;;6.88;4.60;;;;;;;;;;5087922;28;20036;-74
2023/03/16 08:00:08;;;;;;;11.10;5.50;;;;;;;;;;5085350;28;20080;-75
2023/03/16 08:02:34;;;;;;;10.90;5.75;;;;;;;;;;5075067;28;20142;-74
2023/03/16 08:05:00;;;;;;;7.55;4.78;;;;;;;;;;5049444;28;20487;-77
2023/03/16 08:07:27;;;;;;;8.15;5.38;;;;;;;;;;5082002;28;20060;-75
2023/03/16 08:09:53;;;;;;;8.23;4.95;;;;;;;;;;5075545;28;20098;-75
2023/03/16 08:12:19;;;;;;;8.80;4.90;;;;;;;;;;5069860;28;20305;-74
2023/03/16 08:14:46;;;;;;;7.43;4.75;;;;;;;;;;5071526;28;20028;-73
2023/03/16 08:17:12;;;;;;;9.02;4.75;;;;;;;;;;5088468;28;20023;-73
2023/03/16 08:19:39;;;;;;;6.22;4.55;;;;;;;;;;5055083;28;20052;-73
2023/03/16 08:22:05;;;;;;;10.95;4.43;;;;;;;;;;5084987;28;20038;-74
2023/03/16 08:24:32;;;;;;;8.57;4.63;;;;;;;;;;5080050;28;20110;-73
2023/03/16 08:26:59;;;;;;;7.47;4.43;;;;;;;;;;5084885;28;20396;-74
2023/03/16 08:29:26;;;;;;;6.93;4.30;;;;;;;;;;5091658;28;20408;-76
2023/03/16 08:31:55;;;;;;;8.43;4.80;;;;;;;;;;5087628;28;20164;-73
2023/03/16 08:34:21;;;;;;;11.10;6.10;;;;;;;;;;5090816;28;20468;-73
2023/03/16 08:36:47;;;;;;;9.00;4.90;;;;;;;;;;5086109;28;20051;-73
2023/03/16 08:39:14;;;;;;;9.80;5.10;;;;;;;;;;5087952;28;20036;-73
2023/03/16 08:41:41;;;;;;;7.03;4.05;;;;;;;;;;5080981;28;20388;-74
2023/03/16 08:44:08;;;;;;;8.57;4.28;;;;;;;;;;5087142;28;20036;-75
2023/03/16 08:46:34;;;;;;;6.53;4.65;;;;;;;;;;5068081;28;20497;-73
2023/03/16 08:49:01;;;;;;;9.27;4.22;;;;;;;;;;5072781;28;20017;-76
2023/03/16 08:51:28;;;;;;;7.97;4.13;;;;;;;;;;5079055;28;20378;-74
2023/03/16 08:53:54;;;;;;;8.27;4.20;;;;;;;;;;5090224;28;20023;-73
2023/03/16 08:56:20;;;;;;;11.25;5.20;;;;;;;;;;5085103;28;20063;-74
2023/03/16 08:58:46;;;;;;;7.85;4.40;;;;;;;;;;5084737;28;20120;-74
2023/03/16 09:01:16;;;;;;;10.02;4.95;;;;;;;;;;5083004;28;20052;-74
2023/03/16 09:03:44;;;;;;;10.35;5.10;;;;;;;;;;5083738;28;20027;-74
2023/03/16 09:06:12;;;;;;;8.88;5.22;;;;;;;;;;5071878;28;20028;-75
2023/03/16 09:08:39;;;;;;;9.80;4.60;;;;;;;;;;5091549;28;20056;-75
2023/03/16 09:11:10;;;;;;;7.95;4.88;;;;;;;;;;5091459;28;20020;-76
2023/03/16 09:13:37;;;;;;;9.57;4.57;;;;;;;;;;5089222;28;20580;-74
2023/03/16 09:16:04;;;;;;;9.98;5.13;;;;;;;;;;5085519;28;20035;-75
2023/03/16 09:18:31;;;;;;;11.40;4.50;;;;;;;;;;5071566;28;20055;-74
2023/03/16 09:21:01;;;;;;;10.52;4.80;;;;;;;;;;5090634;28;20044;-74
2023/03/16 09:23:29;;;;;;;7.65;4.80;;;;;;;;;;5085845;28;20241;-75
2023/03/16 09:26:03;;;;;;;12.88;5.55;;;;;;;;;;5090971;28;20031;-74
2023/03/16 09:28:30;;;;;;;8.73;4.47;;;;;;;;;;5089995;28;20472;-75
2023/03/16 09:31:00;;;;;;;10.55;4.57;;;;;;;;;;5088090;28;20020;-75
2023/03/16 09:33:27;;;;;;;7.10;3.78;;;;;;;;;;5086556;28;20032;-74
2023/03/16 09:35:56;;;;;;;7.88;4.85;;;;;;;;;;5091021;28;20052;-75
2023/03/16 09:38:24;;;;;;;7.32;4.00;;;;;;;;;;5085045;28;20033;-75
2023/03/16 09:40:55;;;;;;;9.90;4.82;;;;;;;;;;5078226;28;20043;-75
2023/03/16 09:43:29;;;;;;;5.72;3.85;;;;;;;;;;5071063;28;20361;-74
2023/03/16 09:46:16;;;;;;;7.38;4.07;;;;;;;;;;5072341;28;20039;-76
2023/03/16 09:48:42;;;;;;;10.13;4.70;;;;;;;;;;5075920;28;20028;-76
2023/03/16 09:51:16;;;;;;;9.35;4.15;;;;;;;;;;5073129;28;20028;-74
2023/03/16 09:53:43;;;;;;;7.22;4.43;;;;;;;;;;5080009;28;20366;-73
2023/03/16 09:56:09;;;;;;;8.88;3.70;;;;;;;;;;5078667;28;20394;-75
2023/03/16 09:58:35;;;;;;;11.38;4.55;;;;;;;;;;5082798;28;20115;-74
2023/03/16 10:01:08;;;;;;;6.93;3.70;;;;;;;;;;5075661;28;20031;-78
2023/03/16 10:03:57;;;;;;;7.07;4.60;;;;;;;;;;5077944;28;20051;-77
2023/03/16 10:06:25;;;;;;;10.63;4.55;;;;;;;;;;5086428;28;20020;-78
2023/03/16 10:09:14;;;;;;;7.68;4.32;;;;;;;;;;5070338;28;20067;-76
2023/03/16 10:11:48;;;;;;;10.15;4.50;;;;;;;;;;5089348;28;20047;-75
2023/03/16 10:14:21;;;;;;;12.82;4.88;;;;;;;;;;5085179;28;20035;-74
2023/03/16 10:16:49;;;;;;;8.50;4.05;;;;;;;;;;5091656;28;20437;-74
2023/03/16 10:19:22;;;;;;;7.65;3.70;;;;;;;;;;5084423;28;20040;-75
2023/03/16 10:21:49;;;;;;;5.60;3.80;;;;;;;;;;5090271;28;20365;-75
2023/03/16 10:24:33;;;;;;;8.07;3.38;;;;;;;;;;5082265;28;20028;-75
2023/03/16 10:26:59;;;;;;;6.53;3.78;;;;;;;;;;5083075;28;20099;-74
2023/03/16 10:29:28;;;;;;;9.02;4.25;;;;;;;;;;5088904;28;20032;-76
2023/03/16 10:32:00;;;;;;;7.57;3.42;;;;;;;;;;5072054;28;20032;-73
2023/03/16 10:34:26;;;;;;;11.27;4.00;;;;;;;;;;5080490;28;20028;-72
2023/03/16 10:36:54;;;;;;;8.52;4.38;;;;;;;;;;5091010;28;20060;-72
2023/03/16 10:39:20;;;;;;;7.85;4.28;;;;;;;;;;5074007;28;20120;-73
2023/03/16 10:41:54;;;;;;;6.22;3.47;;;;;;;;;;5081451;28;20090;-73
2023/03/16 10:44:28;;;;;;;34.80;15.68;;;;;;;;;;5085174;28;20096;-74
2023/03/16 10:47:02;;;;;;;8.13;3.65;;;;;;;;;;5079027;28;20032;-72
2023/03/16 10:49:28;;;;;;;6.97;3.72;;;;;;;;;;5085188;28;20040;-73
2023/03/16 10:52:01;;;;;;;5.40;3.20;;;;;;;;;;5088754;28;20031;-75
2023/03/16 10:54:34;;;;;;;8.38;3.55;;;;;;;;;;5088078;28;20452;-76
2023/03/16 10:57:01;;;;;;;5.78;3.42;;;;;;;;;;5087377;28;20422;-75
2023/03/16 10:59:33;;;;;;;5.88;3.92;;;;;;;;;;5079734;28;20431;-74
2023/03/16 11:02:01;;;;;;;11.40;4.00;;;;;;;;;;5082363;28;20028;-74
2023/03/16 11:04:30;;;;;;;6.15;3.70;;;;;;;;;;5074202;28;20294;-74
2023/03/16 11:06:57;;;;;;;6.15;3.15;;;;;;;;;;5080535;28;20032;-76
2023/03/16 11:09:31;;;;;;;6.85;3.53;;;;;;;;;;5083632;28;20135;-75
2023/03/16 11:11:59;;;;;;;9.82;4.45;;;;;;;;;;5086974;28;20114;-75
2023/03/16 11:14:27;;;;;;;7.40;3.88;;;;;;;;;;5081780;28;20433;-78
2023/03/16 11:17:02;;;;;;;6.00;3.30;;;;;;;;;;5085984;28;20024;-77
2023/03/16 11:19:28;;;;;;;5.15;2.85;;;;;;;;;;5083624;28;20037;-74
2023/03/16 11:22:07;;;;;;;7.30;3.42;;;;;;;;;;5087908;28;20020;-75
2023/03/16 11:24:41;;;;;;;5.38;2.90;;;;;;;;;;5086680;28;20457;-75
2023/03/16 11:27:13;;;;;;;6.03;3.20;;;;;;;;;;5092089;28;20038;-78
2023/03/16 11:29:46;;;;;;;7.90;4.28;;;;;;;;;;5089065;28;20032;-77
2023/03/16 11:32:21;;;;;;;3.90;3.17;;;;;;;;;;5084733;28;20422;-80
2023/03/16 11:34:47;;;;;;;6.68;3.08;;;;;;;;;;5087833;28;20032;-77
2023/03/16 11:37:32;;;;;;;7.53;3.20;;;;;;;;;;5107904;28;20024;-75
2023/03/16 11:40:16;;;;;;;7.25;3.50;;;;;;;;;;5089441;28;20028;-79
2023/03/16 11:42:54;;;;;;;9.32;3.55;;;;;;;;;;5089247;28;20024;-76
2023/03/16 11:45:20;;;;;;;5.70;3.22;;;;;;;;;;5087232;28;20040;-74
2023/03/16 11:48:03;;;;;;;4.90;3.15;;;;;;;;;;5086172;28;20041;-74
2023/03/16 11:50:44;;;;;;;7.75;3.40;;;;;;;;;;5074217;28;20461;-76
2023/03/16 11:53:13;;;;;;;5.88;2.90;;;;;;;;;;5089706;28;20039;-76
2023/03/16 11:55:58;;;;;;;5.63;3.47;;;;;;;;;;5089056;28;20065;-75
2023/03/16 11:58:42;;;;;;;5.80;3.13;;;;;;;;;;5088931;28;20515;-76
2023/03/16 12:01:18;;;;;;;7.25;3.00;;;;;;;;;;5088277;28;20597;-76
2023/03/16 12:03:44;;;;;;;6.40;3.30;;;;;;;;;;5079304;28;20476;-76
2023/03/16 12:06:23;;;;;;;7.25;3.10;;;;;;;;;;5085206;28;20024;-76
2023/03/16 12:09:03;;;;;;;5.80;3.25;;;;;;;;;;5091034;28;20047;-82
2023/03/16 12:11:49;;;;;;;5.95;3.25;;;;;;;;;;5083582;28;20078;-78
2023/03/16 12:14:18;;;;;;;16.77;8.55;;;;;;;;;;5082010;28;20032;-77
2023/03/16 12:16:44;;;;;;;5.40;3.28;;;;;;;;;;5080706;28;20024;-79
2023/03/16 12:19:30;;;;;;;7.07;3.33;;;;;;;;;;5087601;28;20046;-76
2023/03/16 12:22:07;;;;;;;6.75;3.08;;;;;;;;;;5038223;28;20534;-79
2023/03/16 12:24:37;;;;;;;5.28;2.80;;;;;;;;;;5084620;28;20395;-77
2023/03/16 12:27:05;;;;;;;5.93;2.92;;;;;;;;;;5086508;28;20020;-78
2023/03/16 12:29:32;;;;;;;5.15;2.50;;;;;;;;;;5092687;28;20111;-77
2023/03/16 12:32:17;;;;;;;6.20;2.92;;;;;;;;;;5087556;28;20039;-78
2023/03/16 12:34:47;;;;;;;7.20;3.22;;;;;;;;;;5087192;28;20028;-79
2023/03/16 12:37:29;;;;;;;8.10;3.33;;;;;;;;;;5066392;28;20055;-77
2023/03/16 12:40:05;;;;;;;8.27;3.05;;;;;;;;;;5081635;28;20074;-76
2023/03/16 12:42:50;;;;;;;7.47;3.13;;;;;;;;;;5081256;28;20019;-76
2023/03/16 12:45:32;;;;;;;6.07;3.10;;;;;;;;;;5079231;28;20030;-75
2023/03/16 12:48:03;;;;;;;12.55;4.13;;;;;;;;;;5070787;28;20032;-76
2023/03/16 12:50:30;;;;;;;6.82;3.90;;;;;;;;;;5085459;28;20024;-74
2023/03/16 12:52:56;;;;;;;6.97;3.20;;;;;;;;;;5081245;28;20093;-78
2023/03/16 12:55:38;;;;;;;7.55;3.35;;;;;;;;;;5074171;28;20028;-77
2023/03/16 12:58:06;;;;;;;5.15;2.90;;;;;;;;;;5074679;28;20358;-80
2023/03/16 13:00:36;;;;;;;12.40;4.78;;;;;;;;;;5089512;28;20093;-79
2023/03/16 13:03:04;;;;;;;7.72;4.43;;;;;;;;;;5080617;28;20339;-80
2023/03/16 13:05:30;;;;;;;9.30;3.55;;;;;;;;;;5083839;28;20028;-79
2023/03/16 13:08:08;;;;;;;5.00;3.05;;;;;;;;;;5088200;28;20032;-79
2023/03/16 13:10:36;;;;;;;8.43;4.43;;;;;;;;;;5089743;28;20498;-79
2023/03/16 13:13:10;;;;;;;6.82;3.50;;;;;;;;;;5068178;28;20036;-79
2023/03/16 13:15:38;;;;;;;7.45;3.50;;;;;;;;;;5085927;28;20036;-75
2023/03/16 13:18:16;;;;;;;7.45;2.80;;;;;;;;;;5072900;28;20052;-77
2023/03/16 13:20:57;;;;;;;8.57;3.08;;;;;;;;;;5087915;28;20078;-77
2023/03/16 13:23:46;;;;;;;7.13;3.45;;;;;;;;;;5084430;28;20028;-78
2023/03/16 13:26:12;;;;;;;5.43;3.20;;;;;;;;;;5072188;28;20461;-76
2023/03/16 13:28:39;;;;;;;8.40;3.30;;;;;;;;;;5077396;28;20431;-77
2023/03/16 13:31:19;;;;;;;4.93;2.95;;;;;;;;;;5082720;28;20036;-78
2023/03/16 13:33:46;;;;;;;9.40;3.30;;;;;;;;;;5084452;28;20024;-75
2023/03/16 13:36:13;;;;;;;4.25;2.65;;;;;;;;;;5087687;28;20020;-74
2023/03/16 13:38:39;;;;;;;7.38;3.22;;;;;;;;;;5086289;28;20077;-76
2023/03/16 13:41:10;;;;;;;4.35;2.88;;;;;;;;;;5077906;28;20093;-78
2023/03/16 13:43:38;;;;;;;7.65;3.05;;;;;;;;;;5079836;28;20445;-77
2023/03/16 13:46:21;;;;;;;10.35;3.20;;;;;;;;;;5091243;28;20032;-78
2023/03/16 13:48:47;;;;;;;10.50;3.15;;;;;;;;;;5092934;28;20093;-76
2023/03/16 13:51:19;;;;;;;7.10;3.22;;;;;;;;;;5089546;28;20067;-77
2023/03/16 13:53:46;;;;;;;5.82;3.83;;;;;;;;;;5093637;28;20020;-77
2023/03/16 13:56:13;;;;;;;6.68;3.22;;;;;;;;;;5094057;28;20024;-77
2023/03/16 13:58:39;;;;;;;7.95;3.47;;;;;;;;;;5091651;28;20040;-77
2023/03/16 14:01:13;;;;;;;5.32;2.92;;;;;;;;;;5074563;28;20033;-78
2023/03/16 14:03:42;;;;;;;5.40;3.42;;;;;;;;;;5075531;28;20032;-77
2023/03/16 14:06:20;;;;;;;7.20;3.30;;;;;;;;;;5059396;28;20036;-77
2023/03/16 14:08:49;;;;;;;8.90;3.22;;;;;;;;;;5078031;28;20043;-75
2023/03/16 14:11:15;;;;;;;6.53;3.50;;;;;;;;;;5070668;28;20473;-75
2023/03/16 14:13:41;;;;;;;5.90;3.15;;;;;;;;;;5075913;28;20059;-76
2023/03/16 14:16:12;;;;;;;4.80;2.92;;;;;;;;;;5077675;28;20036;-76
2023/03/16 14:18:42;;;;;;;7.95;3.75;;;;;;;;;;5077193;28;20044;-76
2023/03/16 14:21:35;;;;;;;6.55;3.17;;;;;;;;;;5063003;28;20364;-76
2023/03/16 14:24:03;;;;;;;5.22;3.20;;;;;;;;;;5070221;28;20098;-75
2023/03/16 14:26:39;;;;;;;6.15;3.08;;;;;;;;;;5073189;28;20029;-75
2023/03/16 14:29:08;;;;;;;6.30;3.17;;;;;;;;;;5073946;28;20039;-76
2023/03/16 14:31:39;;;;;;;12.02;3.72;;;;;;;;;;5077733;28;20376;-76
2023/03/16 14:34:26;;;;;;;6.90;3.40;;;;;;;;;;5076675;28;20036;-75
2023/03/16 14:36:52;;;;;;;3.78;2.70;;;;;;;;;;5080001;28;20028;-74
2023/03/16 14:39:27;;;;;;;6.38;3.20;;;;;;;;;;5078513;28;20185;-75
2023/03/16 14:41:53;;;;;;;7.15;3.28;;;;;;;;;;5068013;28;20115;-75
2023/03/16 14:44:21;;;;;;;5.80;3.30;;;;;;;;;;5081070;28;20055;-76
2023/03/16 14:46:48;;;;;;;8.82;3.28;;;;;;;;;;5074919;28;20020;-75
2023/03/16 14:49:27;;;;;;;4.97;2.72;;;;;;;;;;5076132;28;20040;-78
2023/03/16 14:51:55;;;;;;;6.53;3.30;;;;;;;;;;5072250;28;20050;-77